createdAt,value
2018-08-30T00:04:25.025Z,48.7
2018-08-30T00:19:43.011Z,49
2018-08-30T00:34:49.840Z,49.4
2018-08-30T00:50:18.116Z,49.6
2018-08-30T01:05:35.819Z,49.4
2018-08-30T01:20:53.584Z,50.2
2018-08-30T01:36:11.169Z,50
2018-08-30T01:51:25.000Z,50.5
2018-08-30T02:06:46.558Z,50.3
2018-08-30T02:22:04.394Z,51
2018-08-30T02:37:21.574Z,50.5
2018-08-30T02:52:28.478Z,50.9
2018-08-30T03:07:58.599Z,51.4
2018-08-30T03:23:15.315Z,51.4
2018-08-30T03:38:32.592Z,51.5
2018-08-30T03:53:50.387Z,51.6
2018-08-30T04:09:04.118Z,51.9
2018-08-30T04:24:25.694Z,51.5
2018-08-30T04:39:43.532Z,51.1
2018-08-30T04:55:01.576Z,51.1
2018-08-30T05:10:08.092Z,51.2
2018-08-30T05:25:37.470Z,51.3
2018-08-30T05:40:55.802Z,51.3
2018-08-30T05:56:14.245Z,51.5
2018-08-30T06:11:32.370Z,54.2
2018-08-30T06:26:45.192Z,58.2
2018-08-30T06:42:09.327Z,61
2018-08-30T06:57:28.060Z,65.3
2018-08-30T07:12:46.526Z,73.5
2018-08-30T07:27:50.866Z,79.8
2018-08-30T07:43:23.269Z,79.9
2018-08-30T07:58:42.012Z,76.8
2018-08-30T08:14:00.717Z,76.9
2018-08-30T08:29:19.851Z,82
2018-08-30T08:44:29.726Z,86.8
2018-08-30T08:59:55.249Z,85.7
2018-08-30T09:15:13.224Z,86.2
2018-08-30T09:30:31.643Z,87
2018-08-30T09:45:48.921Z,88.1
2018-08-30T10:01:04.501Z,88.9
2018-08-30T10:16:23.555Z,88.7
2018-08-30T10:31:41.358Z,90
2018-08-30T10:46:58.891Z,90.6
2018-08-30T11:02:06.889Z,89.7
2018-08-30T11:17:33.807Z,88.5
2018-08-30T11:32:51.399Z,88.1
2018-08-30T11:48:09.543Z,85.3
2018-08-30T12:03:27.052Z,85.4
2018-08-30T12:18:41.132Z,85.6
2018-08-30T12:34:02.507Z,86.8
2018-08-30T12:49:20.000Z,86.8
2018-08-30T13:04:38.055Z,83.5
2018-08-30T13:19:44.382Z,80.8
2018-08-30T13:35:14.043Z,80.5
2018-08-30T13:50:30.810Z,82.1
2018-08-30T14:05:48.078Z,82.2
2018-08-30T14:21:05.198Z,80.2
2018-08-30T14:36:15.882Z,83.4
2018-08-30T14:51:39.107Z,80.6
2018-08-30T15:06:56.216Z,79.5
2018-08-30T15:22:13.873Z,79
2018-08-30T15:37:16.899Z,77.4
2018-08-30T15:52:47.815Z,75.2
2018-08-30T16:08:06.303Z,73.4
2018-08-30T16:23:23.499Z,73.5
2018-08-30T16:38:40.702Z,71.9
2018-08-30T16:53:49.630Z,70.6
2018-08-30T17:09:16.896Z,69.5
2018-08-30T17:24:34.936Z,70.6
2018-08-30T17:39:52.642Z,72
2018-08-30T17:55:10.196Z,69.3
2018-08-30T18:10:22.864Z,67.7
2018-08-30T18:25:45.432Z,68
2018-08-30T18:41:03.332Z,67.7
2018-08-30T18:56:22.105Z,69
2018-08-30T19:11:25.651Z,69.6
2018-08-30T19:26:55.872Z,69.5
2018-08-30T19:42:13.277Z,71.6
2018-08-30T19:57:30.974Z,74.8
2018-08-30T20:12:47.275Z,77.8
2018-08-30T20:27:56.312Z,79.1
2018-08-30T20:43:22.027Z,77
2018-08-30T20:58:38.660Z,78.8
2018-08-30T21:13:55.624Z,77.2
2018-08-30T21:29:11.951Z,79.6
2018-08-30T21:44:26.186Z,80.6
2018-08-30T21:59:45.768Z,82.8
2018-08-30T22:15:02.022Z,82.2
2018-08-30T22:30:19.277Z,81.6
2018-08-30T22:45:25.228Z,82.5
2018-08-30T23:00:52.074Z,82.8
2018-08-30T23:16:09.900Z,82.6
2018-08-30T23:31:25.490Z,83.1
2018-08-30T23:46:41.920Z,82.8
